Weather at Zürich Airport

Public forecast

Using degrees Celsius for public forecast. Weather courtesy of forecast.io.

Current aviation weather report (METAR) for Zürich Airport

Retrieved 2021/04/20 22:20 UTC (28 minutes ago):

LSZH 202220Z AUTO VRB02KT CAVOK 04/M00 Q1015 NOSIG

Aviation forecast (TAF) for Zürich Airport

Retrieved 2021/04/20 21:33 UTC (1 hour ago):

TAF LSZH 202025Z 2021/2203 VRB02KT CAVOK TX17/2115Z TN02/2104Z PROB30 2102/2105 6000 MIFG NSC BECMG 2110/2113 9999 FEW060 PROB40 TEMPO 2113/2123 SHRA SCT060TCU PROB30 TEMPO 2117/2122 24010KT TSRA SCT055CB